Buckfastleigh, United Kingdom
Current Conditions -  °F | °C
As of 7:50 AM on Thursday 27 Nov 2014 (Local Time) from EGTE Reporting Station
Moderate Fog Moderate Fog  
Wind Chill:   Ceiling: 100
Heat Index:   Visibility: 0.15mi
Dew Point:   Wind: 3mph
Humidity: 93%   Direction: 360°N
Pressure: 29.62"   Gusts: NA
Location:  50.48°N, 3.78°W
Report Text: EGTE 270750Z 36003KT 0250 FG BKN001 02/01 Q1003
Loading
Personal Weather Stations






























Interactive Weather Map New forecast layout! Learn more

10-Day Weather Forecast

Advertisements
Track Severe Weather on mobile